Pierre A — TCA3529 — position and weather

sailwx.info

Track history (hours):
 
Tides and Currents Weather Stations Pressure Air Temp Water Temp Dewpoint Dewpoint Depression Visibility Wind Speed Wind Dir Waves Ship Positions

Pierre A

Last reported at 2018-May-22 13:07 UTC. Time now 2018-May-23 03:27 UTC.
Position N 33°32' E 034°32'.

Length 214 m; draft 10 m.

Type: Ship (hazmat cat A). MMSI: 271044163.

Date/timePositionNaut miles runAvg speedWind from/ knotsBaromVisibWave heightAir tempDewpointWater temp
2018-May-22 13:07N 33°32' E 034°32'212.4
2018-May-22 12:59N 33°31' E 034°30'612.3
2018-May-22 12:30N 33°28' E 034°25'612.1
2018-May-22 12:00N 33°24' E 034°19'612.3
2018-May-22 11:30N 33°21' E 034°13'612.1
2018-May-22 11:00N 33°17' E 034°07'7713.0
2018-May-22 05:03N 32°28' E 032°56'112.5
2018-May-22 04:58N 32°27' E 032°55'612.6
2018-May-22 04:30N 32°23' E 032°50'612.6
2018-May-22 04:00N 32°19' E 032°44'612.6
2018-May-22 03:30N 32°16' E 032°38'612.6
2018-May-22 03:00N 32°12' E 032°33'612.4
2018-May-22 02:31N 32°08' E 032°27'612.2
2018-May-22 02:01N 32°04' E 032°21'612.0
2018-May-22 01:29N 32°01' E 032°15'612.1
2018-May-22 00:58N 31°56' E 032°09'1011.9
2018-May-22 00:09N 31°49' E 032°01'22 1.3
2018-May-21 07:34N 31°32' E 031°46'1 9.5
2018-May-21 07:30N 31°33' E 031°46'7 2.3
2018-May-21 04:33N 31°39' E 031°45'2 3.7
2018-May-21 03:55N 31°39' E 031°48'612.4
2018-May-21 03:25N 31°42' E 031°54'511.9
2018-May-21 03:00N 31°44' E 031°60'612.2
2018-May-21 02:30N 31°40' E 032°05'612.5
2018-May-21 02:00N 31°36' E 032°10'612.4
2018-May-21 01:30N 31°31' E 032°15'711.9
2018-May-21 00:57N 31°26' E 032°20'712.0
2018-May-21 00:23N 31°19' E 032°22'4 9.4
2018-May-21 00:00N 31°17' E 032°20'2 0.1
2018-May-20 12:13N 31°15' E 032°18'1 6.1
2018-May-20 12:01N 31°16' E 032°19'4 8.6
2018-May-20 11:30N 31°20' E 032°22'4 8.0
2018-May-20 11:01N 31°23' E 032°19'1 1.3
2018-May-20 10:29N 31°23' E 032°18'0 0.0
2018-May-20 09:09N 31°23' E 032°18'0 0.1
2018-May-20 08:54N 31°23' E 032°18'0 0.0
2018-May-20 06:51N 31°23' E 032°18'0 0.0
2018-May-20 06:30N 31°23' E 032°18'0 0.0
2018-May-20 04:39N 31°23' E 032°18'0 0.0
2018-May-20 04:12N 31°23' E 032°18'0 0.2
2018-May-20 04:00N 31°23' E 032°18'0 0.0
2018-May-20 03:30N 31°23' E 032°18'0 0.0
2018-May-20 03:00N 31°23' E 032°18'0 0.0
2018-May-20 01:11N 31°23' E 032°18'0 0.0
2018-May-20 00:03N 31°23' E 032°18'0 0.1
2018-May-19 23:33N 31°23' E 032°18'0 0.3
2018-May-19 23:30N 31°23' E 032°18'0 0.6
2018-May-19 23:00N 31°23' E 032°18'1911.1
2018-May-19 21:20N 31°38' E 032°05'6411.7
2018-May-19 15:53N 31°43' E 030°51'512.1
2018-May-19 15:29N 31°43' E 030°45'61 1.2
2018-May-17 13:26N 31°13' E 029°43'0 0.1
2018-May-17 12:02N 31°13' E 029°43'0 0.0
2018-May-17 11:32N 31°13' E 029°43'0 0.1
2018-May-17 11:26N 31°13' E 029°43'0 0.0
2018-May-17 10:56N 31°13' E 029°43'0 0.0
2018-May-17 10:29N 31°13' E 029°43'0 0.0
2018-May-17 09:44N 31°13' E 029°43'0 0.0
2018-May-17 03:46N 31°13' E 029°43'0 0.0
2018-May-17 03:19N 31°13' E 029°43'0 0.0
2018-May-17 03:00N 31°13' E 029°43'0 0.0
2018-May-17 01:46N 31°13' E 029°43'0 0.0
2018-May-16 21:58N 31°13' E 029°43'6 6.7
2018-May-16 21:08N 31°18' E 029°43'7012.3
2018-May-16 15:28N 32°25' E 030°09'612.2
2018-May-16 14:57N 32°31' E 030°12'612.3
2018-May-16 14:30N 32°36' E 030°15'712.2
2018-May-16 13:55N 32°42' E 030°19'512.2
2018-May-16 13:30N 32°46' E 030°22'1312.3
2018-May-16 12:27N 32°58' E 030°29'612.3
2018-May-16 12:00N 33°02' E 030°33'912.5
2018-May-16 11:17N 33°10' E 030°39'412.6
2018-May-16 10:57N 33°14' E 030°41'612.5
2018-May-16 10:30N 33°19' E 030°44'1112.4
2018-May-16 09:35N 33°29' E 030°51'5212.4
2018-May-16 05:25N 34°14' E 031°21'2212.3
2018-May-16 03:38N 34°33' E 031°34'212.3
2018-May-16 03:27N 34°35' E 031°35'612.2
2018-May-16 03:00N 34°40' E 031°38'612.5
2018-May-16 02:30N 34°45' E 031°41'94 1.8
2018-May-13 22:48N 36°00' E 030°31'512.0
2018-May-13 22:20N 36°00' E 030°25'23311.7
2018-May-13 02:19N 37°29' E 025°55'411.7
2018-May-13 02:00N 37°32' E 025°53'612.0
2018-May-13 01:29N 37°38' E 025°51'  
Track history (hours):
 
Tides and Currents Weather Stations Pressure Air Temp Water Temp Dewpoint Dewpoint Depression Visibility Wind Speed Wind Dir Waves Ship Positions

Pierre A

Last reported at 2018-May-22 13:07 UTC. Time now 2018-May-23 03:27 UTC.
Position N 33°32' E 034°32'.

Length 214 m; draft 10 m.

Type: Ship (hazmat cat A). MMSI: 271044163.

Date/timePositionNaut miles runAvg speedWind from/ knotsBaromVisibWave heightAir tempDewpointWater temp
2018-May-22 13:07N 33°32' E 034°32'212.4
2018-May-22 12:59N 33°31' E 034°30'612.3
2018-May-22 12:30N 33°28' E 034°25'612.1
2018-May-22 12:00N 33°24' E 034°19'612.3
2018-May-22 11:30N 33°21' E 034°13'612.1
2018-May-22 11:00N 33°17' E 034°07'7713.0
2018-May-22 05:03N 32°28' E 032°56'112.5
2018-May-22 04:58N 32°27' E 032°55'612.6
2018-May-22 04:30N 32°23' E 032°50'612.6
2018-May-22 04:00N 32°19' E 032°44'612.6
2018-May-22 03:30N 32°16' E 032°38'612.6
2018-May-22 03:00N 32°12' E 032°33'612.4
2018-May-22 02:31N 32°08' E 032°27'612.2
2018-May-22 02:01N 32°04' E 032°21'612.0
2018-May-22 01:29N 32°01' E 032°15'612.1
2018-May-22 00:58N 31°56' E 032°09'1011.9
2018-May-22 00:09N 31°49' E 032°01'22 1.3
2018-May-21 07:34N 31°32' E 031°46'1 9.5
2018-May-21 07:30N 31°33' E 031°46'7 2.3
2018-May-21 04:33N 31°39' E 031°45'2 3.7
2018-May-21 03:55N 31°39' E 031°48'612.4
2018-May-21 03:25N 31°42' E 031°54'511.9
2018-May-21 03:00N 31°44' E 031°60'612.2
2018-May-21 02:30N 31°40' E 032°05'612.5
2018-May-21 02:00N 31°36' E 032°10'612.4
2018-May-21 01:30N 31°31' E 032°15'711.9
2018-May-21 00:57N 31°26' E 032°20'712.0
2018-May-21 00:23N 31°19' E 032°22'4 9.4
2018-May-21 00:00N 31°17' E 032°20'2 0.1
2018-May-20 12:13N 31°15' E 032°18'1 6.1
2018-May-20 12:01N 31°16' E 032°19'4 8.6
2018-May-20 11:30N 31°20' E 032°22'4 8.0
2018-May-20 11:01N 31°23' E 032°19'1 1.3
2018-May-20 10:29N 31°23' E 032°18'0 0.0
2018-May-20 09:09N 31°23' E 032°18'0 0.1
2018-May-20 08:54N 31°23' E 032°18'0 0.0
2018-May-20 06:51N 31°23' E 032°18'0 0.0
2018-May-20 06:30N 31°23' E 032°18'0 0.0
2018-May-20 04:39N 31°23' E 032°18'0 0.0
2018-May-20 04:12N 31°23' E 032°18'0 0.2
2018-May-20 04:00N 31°23' E 032°18'0 0.0
2018-May-20 03:30N 31°23' E 032°18'0 0.0
2018-May-20 03:00N 31°23' E 032°18'0 0.0
2018-May-20 01:11N 31°23' E 032°18'0 0.0
2018-May-20 00:03N 31°23' E 032°18'0 0.1
2018-May-19 23:33N 31°23' E 032°18'0 0.3
2018-May-19 23:30N 31°23' E 032°18'0 0.6
2018-May-19 23:00N 31°23' E 032°18'1911.1
2018-May-19 21:20N 31°38' E 032°05'6411.7
2018-May-19 15:53N 31°43' E 030°51'512.1
2018-May-19 15:29N 31°43' E 030°45'61 1.2
2018-May-17 13:26N 31°13' E 029°43'0 0.1
2018-May-17 12:02N 31°13' E 029°43'0 0.0
2018-May-17 11:32N 31°13' E 029°43'0 0.1
2018-May-17 11:26N 31°13' E 029°43'0 0.0
2018-May-17 10:56N 31°13' E 029°43'0 0.0
2018-May-17 10:29N 31°13' E 029°43'0 0.0
2018-May-17 09:44N 31°13' E 029°43'0 0.0
2018-May-17 03:46N 31°13' E 029°43'0 0.0
2018-May-17 03:19N 31°13' E 029°43'0 0.0
2018-May-17 03:00N 31°13' E 029°43'0 0.0
2018-May-17 01:46N 31°13' E 029°43'0 0.0
2018-May-16 21:58N 31°13' E 029°43'6 6.7
2018-May-16 21:08N 31°18' E 029°43'7012.3
2018-May-16 15:28N 32°25' E 030°09'612.2
2018-May-16 14:57N 32°31' E 030°12'612.3
2018-May-16 14:30N 32°36' E 030°15'712.2
2018-May-16 13:55N 32°42' E 030°19'512.2
2018-May-16 13:30N 32°46' E 030°22'1312.3
2018-May-16 12:27N 32°58' E 030°29'612.3
2018-May-16 12:00N 33°02' E 030°33'912.5
2018-May-16 11:17N 33°10' E 030°39'412.6
2018-May-16 10:57N 33°14' E 030°41'612.5
2018-May-16 10:30N 33°19' E 030°44'1112.4
2018-May-16 09:35N 33°29' E 030°51'5212.4
2018-May-16 05:25N 34°14' E 031°21'2212.3
2018-May-16 03:38N 34°33' E 031°34'212.3
2018-May-16 03:27N 34°35' E 031°35'612.2
2018-May-16 03:00N 34°40' E 031°38'612.5
2018-May-16 02:30N 34°45' E 031°41'94 1.8
2018-May-13 22:48N 36°00' E 030°31'512.0
2018-May-13 22:20N 36°00' E 030°25'23311.7
2018-May-13 02:19N 37°29' E 025°55'411.7
2018-May-13 02:00N 37°32' E 025°53'612.0
2018-May-13 01:29N 37°38' E 025°51'  

Dump ship's entire track history